createdAt,value
2018-09-09T00:00:56.021Z,99.99
2018-09-09T00:02:04.665Z,99.99
2018-09-09T00:03:13.578Z,99.99
2018-09-09T00:04:22.479Z,99.99
2018-09-09T00:05:31.395Z,99.99
2018-09-09T00:06:40.034Z,99.99
2018-09-09T00:07:48.689Z,99.99
2018-09-09T00:08:57.324Z,99.99
2018-09-09T00:10:05.971Z,99.99
2018-09-09T00:11:14.615Z,99.99
2018-09-09T00:12:23.529Z,99.99
2018-09-09T00:13:32.174Z,99.99
2018-09-09T00:14:40.820Z,99.99
2018-09-09T00:15:50.255Z,99.99
2018-09-09T00:16:59.162Z,99.99
2018-09-09T00:18:07.814Z,99.99
2018-09-09T00:19:16.457Z,99.99
2018-09-09T00:20:25.105Z,99.99
2018-09-09T00:21:33.739Z,99.99
2018-09-09T00:22:42.392Z,99.99
2018-09-09T00:23:51.030Z,99.99
2018-09-09T00:24:59.677Z,99.99
2018-09-09T00:26:08.315Z,99.99
2018-09-09T00:27:16.968Z,99.99
2018-09-09T00:28:25.884Z,99.99
2018-09-09T00:29:34.529Z,99.99
2018-09-09T00:30:43.166Z,99.99
2018-09-09T00:31:51.813Z,99.99
2018-09-09T00:33:00.467Z,99.99
2018-09-09T00:34:09.376Z,99.99
2018-09-09T00:35:18.025Z,99.99
2018-09-09T00:36:26.663Z,99.99
2018-09-09T00:37:35.309Z,99.99
2018-09-09T00:38:43.947Z,99.99
2018-09-09T00:39:52.600Z,99.99
2018-09-09T00:41:01.230Z,99.99
2018-09-09T00:42:09.876Z,99.99
2018-09-09T00:43:18.519Z,99.99
2018-09-09T00:44:27.170Z,99.99
2018-09-09T00:45:35.804Z,99.99
2018-09-09T00:46:44.451Z,99.99
2018-09-09T00:47:53.094Z,99.99
2018-09-09T00:49:01.750Z,99.99
2018-09-09T00:50:10.392Z,99.99
2018-09-09T00:51:19.301Z,99.99
2018-09-09T00:52:27.945Z,99.99
2018-09-09T00:53:36.589Z,99.99
2018-09-09T00:54:45.237Z,99.99
2018-09-09T00:55:54.145Z,99.99
2018-09-09T00:57:02.790Z,99.99
2018-09-09T00:58:11.697Z,99.99
2018-09-09T00:59:20.347Z,99.99
2018-09-09T01:00:29.256Z,99.99
2018-09-09T01:01:38.160Z,99.99
2018-09-09T01:02:46.800Z,99.99
2018-09-09T01:03:55.712Z,99.99
2018-09-09T01:05:04.353Z,99.99
2018-09-09T01:06:13.005Z,99.99
2018-09-09T01:07:21.645Z,99.99
2018-09-09T01:08:30.292Z,99.99
2018-09-09T01:09:38.946Z,99.99
2018-09-09T01:10:47.855Z,99.99
2018-09-09T01:11:56.502Z,99.99
2018-09-09T01:13:05.140Z,99.99
2018-09-09T01:14:13.791Z,99.99
2018-09-09T01:15:22.695Z,99.99
2018-09-09T01:16:31.606Z,99.99
2018-09-09T01:17:40.246Z,99.99
2018-09-09T01:18:49.163Z,99.99
2018-09-09T01:19:58.073Z,99.99
2018-09-09T01:21:06.991Z,99.99
2018-09-09T01:22:15.909Z,99.99
2018-09-09T01:23:24.819Z,99.99
2018-09-09T01:24:33.463Z,99.99
2018-09-09T01:25:42.111Z,99.99
2018-09-09T01:26:50.752Z,99.99
2018-09-09T01:27:59.399Z,99.99
2018-09-09T01:29:08.042Z,99.99
2018-09-09T01:30:16.683Z,99.99
2018-09-09T01:31:25.862Z,99.99
2018-09-09T01:32:34.507Z,99.99
2018-09-09T01:33:43.198Z,99.99
2018-09-09T01:34:52.061Z,99.99
2018-09-09T01:36:00.975Z,99.99
2018-09-09T01:37:09.621Z,99.99
2018-09-09T01:38:18.536Z,99.99
2018-09-09T01:39:27.177Z,99.99
2018-09-09T01:40:36.092Z,99.99
2018-09-09T01:41:44.734Z,99.99
2018-09-09T01:42:53.920Z,99.99
2018-09-09T01:44:02.559Z,99.99
2018-09-09T01:45:11.205Z,99.99
2018-09-09T01:46:19.851Z,99.99
2018-09-09T01:47:28.493Z,99.99
2018-09-09T01:48:37.136Z,99.99
2018-09-09T01:49:45.791Z,99.99
2018-09-09T01:50:54.429Z,99.99
2018-09-09T01:52:03.074Z,99.99
2018-09-09T01:53:11.715Z,99.99
2018-09-09T01:54:20.364Z,99.99
2018-09-09T01:55:29.008Z,99.99
2018-09-09T01:56:37.912Z,99.99
2018-09-09T01:57:46.550Z,99.99
2018-09-09T01:58:55.198Z,99.99
2018-09-09T02:00:03.839Z,99.99
2018-09-09T02:01:12.485Z,99.99
2018-09-09T02:02:21.390Z,99.99
2018-09-09T02:03:30.039Z,99.99
2018-09-09T02:04:38.680Z,99.99
2018-09-09T02:05:47.326Z,99.99
2018-09-09T02:06:55.972Z,99.99
2018-09-09T02:08:04.616Z,99.99
2018-09-09T02:09:13.260Z,99.99
2018-09-09T02:10:21.904Z,99.99
2018-09-09T02:11:30.556Z,99.99
2018-09-09T02:12:39.195Z,99.99
2018-09-09T02:13:47.841Z,99.99
2018-09-09T02:14:56.487Z,99.99
2018-09-09T02:16:05.133Z,99.99
2018-09-09T02:17:13.773Z,99.99
2018-09-09T02:18:22.418Z,99.99
2018-09-09T02:19:31.063Z,99.99
2018-09-09T02:20:39.710Z,99.99
2018-09-09T02:21:48.351Z,99.99
2018-09-09T02:22:56.998Z,99.99
2018-09-09T02:24:05.910Z,99.99
2018-09-09T02:25:14.555Z,99.99
2018-09-09T02:26:23.471Z,99.99
2018-09-09T02:27:32.115Z,99.99
2018-09-09T02:28:40.758Z,99.99
2018-09-09T02:29:49.399Z,99.99
2018-09-09T02:30:58.056Z,99.99
2018-09-09T02:32:06.966Z,99.99
2018-09-09T02:33:15.607Z,99.99
2018-09-09T02:34:24.508Z,99.99
2018-09-09T02:35:33.155Z,99.99
2018-09-09T02:36:41.804Z,99.99
2018-09-09T02:37:50.977Z,99.99
2018-09-09T02:38:59.616Z,99.99
2018-09-09T02:40:08.538Z,99.99
2018-09-09T02:41:17.445Z,99.99
2018-09-09T02:42:26.095Z,99.99
2018-09-09T02:43:34.777Z,99.99
2018-09-09T02:44:43.736Z,99.99
2018-09-09T02:45:52.383Z,99.99
2018-09-09T02:47:01.028Z,99.99
2018-09-09T02:48:09.681Z,99.99
2018-09-09T02:49:18.323Z,99.99
2018-09-09T02:50:26.976Z,99.99
2018-09-09T02:51:35.614Z,99.99
2018-09-09T02:52:44.541Z,99.99
2018-09-09T02:53:53.182Z,99.99
2018-09-09T02:55:01.831Z,99.99
2018-09-09T02:56:10.481Z,99.99
2018-09-09T02:57:19.411Z,99.99
2018-09-09T02:58:28.055Z,99.99
2018-09-09T02:59:36.963Z,99.99
2018-09-09T03:00:45.868Z,99.99
2018-09-09T03:01:54.517Z,99.99
2018-09-09T03:03:03.171Z,99.99
2018-09-09T03:04:12.078Z,99.99
2018-09-09T03:05:20.724Z,99.99
2018-09-09T03:06:29.912Z,99.99
2018-09-09T03:07:38.566Z,99.99
2018-09-09T03:08:47.482Z,99.99
2018-09-09T03:09:56.395Z,99.99
2018-09-09T03:11:05.292Z,99.99
2018-09-09T03:12:14.207Z,99.99
2018-09-09T03:13:22.855Z,99.99
2018-09-09T03:14:31.504Z,99.99
2018-09-09T03:15:40.400Z,99.99
2018-09-09T03:16:49.050Z,99.99
2018-09-09T03:17:57.701Z,99.99
2018-09-09T03:19:06.877Z,99.99
2018-09-09T03:20:15.526Z,99.99
2018-09-09T03:21:24.169Z,99.99
2018-09-09T03:22:33.083Z,99.99
2018-09-09T03:23:41.724Z,99.99
2018-09-09T03:24:50.649Z,99.99
2018-09-09T03:25:59.284Z,99.99
2018-09-09T03:27:07.933Z,99.99
2018-09-09T03:28:16.842Z,99.99
2018-09-09T03:29:25.500Z,99.99
2018-09-09T03:30:34.139Z,99.99
2018-09-09T03:31:42.790Z,99.99
2018-09-09T03:32:51.698Z,99.99
2018-09-09T03:34:00.351Z,99.99
2018-09-09T03:35:08.995Z,99.99
2018-09-09T03:36:17.643Z,99.99
2018-09-09T03:37:26.545Z,99.99
2018-09-09T03:38:35.188Z,99.99
2018-09-09T03:39:43.842Z,99.99
2018-09-09T03:40:52.482Z,99.99
2018-09-09T03:42:01.134Z,99.99
2018-09-09T03:43:10.035Z,99.99
2018-09-09T03:44:18.689Z,99.99
2018-09-09T03:45:27.595Z,99.99
2018-09-09T03:46:36.237Z,99.99
2018-09-09T03:47:44.875Z,99.99
2018-09-09T03:48:53.524Z,99.99
2018-09-09T03:50:02.165Z,99.99
2018-09-09T03:51:10.811Z,99.99
2018-09-09T03:52:19.449Z,99.99
2018-09-09T03:53:28.098Z,99.99
2018-09-09T03:54:36.743Z,99.99
2018-09-09T03:55:45.390Z,99.99
2018-09-09T03:56:54.303Z,99.99
2018-09-09T03:58:03.207Z,99.99
2018-09-09T03:59:12.114Z,99.99
2018-09-09T04:00:20.758Z,99.99
2018-09-09T04:01:29.670Z,99.99
2018-09-09T04:02:38.311Z,99.99
2018-09-09T04:03:46.968Z,99.99
2018-09-09T04:04:55.876Z,99.99
2018-09-09T04:06:04.525Z,99.99
2018-09-09T04:07:13.165Z,99.99
2018-09-09T04:08:22.084Z,99.99
2018-09-09T04:09:30.994Z,99.99
2018-09-09T04:10:39.911Z,99.99
2018-09-09T04:11:48.550Z,99.99
2018-09-09T04:12:57.467Z,99.99
2018-09-09T04:14:06.110Z,99.99
2018-09-09T04:15:15.282Z,99.99
2018-09-09T04:16:23.929Z,99.99
2018-09-09T04:17:32.572Z,99.99
2018-09-09T04:18:41.223Z,99.99
2018-09-09T04:19:49.866Z,99.99
2018-09-09T04:20:58.514Z,99.99
2018-09-09T04:22:07.161Z,99.99
2018-09-09T04:23:15.805Z,99.99
2018-09-09T04:24:24.446Z,99.99
2018-09-09T04:25:33.092Z,99.99
2018-09-09T04:26:41.988Z,99.99
2018-09-09T04:27:50.636Z,99.99
2018-09-09T04:28:59.553Z,99.99
2018-09-09T04:30:08.189Z,99.99
2018-09-09T04:31:16.833Z,99.99
2018-09-09T04:32:25.483Z,99.99
2018-09-09T04:33:34.131Z,99.99
2018-09-09T04:34:43.032Z,99.99
2018-09-09T04:35:51.937Z,99.99
2018-09-09T04:37:00.581Z,99.99
2018-09-09T04:38:09.230Z,99.99
2018-09-09T04:39:17.874Z,99.99
2018-09-09T04:40:27.060Z,99.99
2018-09-09T04:41:35.980Z,99.99
2018-09-09T04:42:44.886Z,99.99
2018-09-09T04:43:53.524Z,99.99
2018-09-09T04:45:02.449Z,99.99
2018-09-09T04:46:11.394Z,99.99
2018-09-09T04:47:20.023Z,99.99
2018-09-09T04:48:28.670Z,99.99
2018-09-09T04:49:37.315Z,99.99
2018-09-09T04:50:45.949Z,99.99
2018-09-09T04:51:54.591Z,99.99
2018-09-09T04:53:03.246Z,99.99
2018-09-09T04:54:12.158Z,99.99
2018-09-09T04:55:20.808Z,99.99
2018-09-09T04:56:29.449Z,99.99
2018-09-09T04:57:38.369Z,99.99
2018-09-09T04:58:47.010Z,99.99
2018-09-09T04:59:55.920Z,99.99
2018-09-09T05:01:04.556Z,99.99
2018-09-09T05:02:13.208Z,99.99
2018-09-09T05:03:21.850Z,99.99
2018-09-09T05:04:30.497Z,99.99
2018-09-09T05:05:39.132Z,99.99
2018-09-09T05:06:47.780Z,99.99
2018-09-09T05:07:56.427Z,99.99
2018-09-09T05:09:05.339Z,99.99
2018-09-09T05:10:13.984Z,99.99
2018-09-09T05:11:22.619Z,99.99
2018-09-09T05:12:31.267Z,99.99
2018-09-09T05:13:39.911Z,99.99
2018-09-09T05:14:48.571Z,99.99
2018-09-09T05:15:57.467Z,99.99
2018-09-09T05:17:06.120Z,99.99
2018-09-09T05:18:14.757Z,99.99
2018-09-09T05:19:23.411Z,99.99
2018-09-09T05:20:32.044Z,99.99
2018-09-09T05:21:40.955Z,99.99
2018-09-09T05:22:49.594Z,99.99
2018-09-09T05:23:58.249Z,99.99
2018-09-09T05:25:06.892Z,99.99
2018-09-09T05:26:15.530Z,99.99
2018-09-09T05:27:24.174Z,99.99
2018-09-09T05:28:32.814Z,99.99
2018-09-09T05:29:41.469Z,99.99
2018-09-09T05:30:50.372Z,99.99
2018-09-09T05:31:59.022Z,99.99
2018-09-09T05:33:07.922Z,99.99
2018-09-09T05:34:16.572Z,99.99
2018-09-09T05:35:25.212Z,99.99
2018-09-09T05:36:33.861Z,99.99
2018-09-09T05:37:42.501Z,99.99
2018-09-09T05:38:51.414Z,99.99
2018-09-09T05:40:00.056Z,99.99
2018-09-09T05:41:08.696Z,99.99
2018-09-09T05:42:17.390Z,99.99
2018-09-09T05:43:25.991Z,99.99
2018-09-09T05:44:34.635Z,99.99
2018-09-09T05:45:43.279Z,99.99
2018-09-09T05:46:52.192Z,99.99
2018-09-09T05:48:01.109Z,99.99
2018-09-09T05:49:10.026Z,99.99
2018-09-09T05:50:19.246Z,99.99
2018-09-09T05:51:28.147Z,99.99
2018-09-09T05:52:36.800Z,99.99
2018-09-09T05:53:45.773Z,99.99
2018-09-09T05:54:54.349Z,99.99
2018-09-09T05:56:02.993Z,99.99
2018-09-09T05:57:11.637Z,99.99
2018-09-09T05:58:20.277Z,99.76
2018-09-09T05:59:28.922Z,99.96
2018-09-09T06:00:37.556Z,99.96
2018-09-09T06:01:46.205Z,99.99
2018-09-09T06:02:55.125Z,99.48
2018-09-09T06:04:03.772Z,98.9
2018-09-09T06:05:12.420Z,99.48
2018-09-09T06:06:21.055Z,98.61
2018-09-09T06:07:29.972Z,98.81
2018-09-09T06:08:38.611Z,98.52
2018-09-09T06:09:47.263Z,98.43
2018-09-09T06:10:55.896Z,98.71
2018-09-09T06:12:04.547Z,98.04
2018-09-09T06:13:13.187Z,98.14
2018-09-09T06:14:21.839Z,97.85
2018-09-09T06:15:30.469Z,97.95
2018-09-09T06:16:39.119Z,98.04
2018-09-09T06:17:48.033Z,97.75
2018-09-09T06:18:56.954Z,97.75
2018-09-09T06:20:05.600Z,97.52
2018-09-09T06:21:14.239Z,97.9
2018-09-09T06:22:22.884Z,97.23
2018-09-09T06:23:31.528Z,97.13
2018-09-09T06:24:40.184Z,96.75
2018-09-09T06:25:48.824Z,96.56
2018-09-09T06:26:57.475Z,96.66
2018-09-09T06:28:06.369Z,96.75
2018-09-09T06:29:15.594Z,96.27
2018-09-09T06:30:24.239Z,95.98
2018-09-09T06:31:32.890Z,95.51
2018-09-09T06:32:41.525Z,95.75
2018-09-09T06:33:50.220Z,95.7
2018-09-09T06:34:58.823Z,95.27
2018-09-09T06:36:07.471Z,95.17
2018-09-09T06:37:16.112Z,95.07
2018-09-09T06:38:24.757Z,94.79
2018-09-09T06:39:33.406Z,94.6
2018-09-09T06:40:42.054Z,94.69
2018-09-09T06:41:50.702Z,94.31
2018-09-09T06:42:59.606Z,94.6
2018-09-09T06:44:08.249Z,94.31
2018-09-09T06:45:16.895Z,94.02
2018-09-09T06:46:25.983Z,93.93
2018-09-09T06:47:34.595Z,93.93
2018-09-09T06:48:43.241Z,94.31
2018-09-09T06:49:51.887Z,94.4
2018-09-09T06:51:00.538Z,94.4
2018-09-09T06:52:09.181Z,94.69
2018-09-09T06:53:18.084Z,93.83
2018-09-09T06:54:26.725Z,93.69
2018-09-09T06:55:35.372Z,93.49
2018-09-09T06:56:44.024Z,93.4
2018-09-09T06:57:52.926Z,93.49
2018-09-09T06:59:01.568Z,93.21
2018-09-09T07:00:10.478Z,93.11
2018-09-09T07:01:19.396Z,93.78
2018-09-09T07:02:28.080Z,93.21
2018-09-09T07:03:36.945Z,92.82
2018-09-09T07:04:45.588Z,92.15
2018-09-09T07:05:54.239Z,92.82
2018-09-09T07:07:02.923Z,92.73
2018-09-09T07:08:11.793Z,91.67
2018-09-09T07:09:20.434Z,91.82
2018-09-09T07:10:29.087Z,91.63
2018-09-09T07:11:37.920Z,91.24
2018-09-09T07:12:46.380Z,91.24
2018-09-09T07:13:55.283Z,91.24
2018-09-09T07:15:03.930Z,91.24
2018-09-09T07:16:12.576Z,90.76
2018-09-09T07:17:21.227Z,90.76
2018-09-09T07:18:29.872Z,90.19
2018-09-09T07:19:38.516Z,90.52
2018-09-09T07:20:47.161Z,92.05
2018-09-09T07:21:55.810Z,91.48
2018-09-09T07:23:04.460Z,91.77
2018-09-09T07:24:13.368Z,90.71
2018-09-09T07:25:22.284Z,90.33
2018-09-09T07:26:30.930Z,90.14
2018-09-09T07:27:39.578Z,89.65
2018-09-09T07:28:48.219Z,89.94
2018-09-09T07:29:56.868Z,88.84
2018-09-09T07:31:05.553Z,88.45
2018-09-09T07:32:14.165Z,89.32
2018-09-09T07:33:22.809Z,89.12
2018-09-09T07:34:31.454Z,88.26
2018-09-09T07:35:40.363Z,88.17
2018-09-09T07:36:49.009Z,88.65
2018-09-09T07:37:57.931Z,88.07
2018-09-09T07:39:06.577Z,86.63
2018-09-09T07:40:15.224Z,87.4
2018-09-09T07:41:23.876Z,87.4
2018-09-09T07:42:32.516Z,88.17
2018-09-09T07:43:41.429Z,88.45
2018-09-09T07:44:50.073Z,87.98
2018-09-09T07:45:59.264Z,88.55
2018-09-09T07:47:07.912Z,88.74
2018-09-09T07:48:16.826Z,88.26
2018-09-09T07:49:25.487Z,88.88
2018-09-09T07:50:34.128Z,88.26
2018-09-09T07:51:43.141Z,87.68
2018-09-09T07:52:51.785Z,87.49
2018-09-09T07:54:00.429Z,87.59
2018-09-09T07:55:09.073Z,87.3
2018-09-09T07:56:17.734Z,87.3
2018-09-09T07:57:26.371Z,87.59
2018-09-09T07:58:35.022Z,87.78
2018-09-09T07:59:43.658Z,87.44
2018-09-09T08:00:52.591Z,88.02
2018-09-09T08:02:01.233Z,87.73
2018-09-09T08:03:09.886Z,87.78
2018-09-09T08:04:18.528Z,87.21
2018-09-09T08:05:27.186Z,88.17
2018-09-09T08:06:35.831Z,87.21
2018-09-09T08:07:44.479Z,87.73
2018-09-09T08:08:53.120Z,86.77
2018-09-09T08:10:01.768Z,87.49
2018-09-09T08:11:10.417Z,87.68
2018-09-09T08:12:19.072Z,88.07
2018-09-09T08:13:27.723Z,88.11
2018-09-09T08:14:36.366Z,86.72
2018-09-09T08:15:45.016Z,86.68
2018-09-09T08:16:53.659Z,87.01
2018-09-09T08:18:02.316Z,86.1
2018-09-09T08:19:11.224Z,86.19
2018-09-09T08:20:19.876Z,86.48
2018-09-09T08:21:28.523Z,86
2018-09-09T08:22:37.439Z,85.81
2018-09-09T08:23:46.168Z,85.91
2018-09-09T08:24:54.731Z,85.62
2018-09-09T08:26:03.378Z,86.29
2018-09-09T08:27:12.027Z,85.57
2018-09-09T08:28:20.934Z,84.95
2018-09-09T08:29:29.577Z,85.28
2018-09-09T08:30:38.221Z,86.05
2018-09-09T08:31:46.864Z,85.85
2018-09-09T08:32:55.520Z,85.57
2018-09-09T08:34:04.163Z,85.08
2018-09-09T08:35:12.817Z,84.12
2018-09-09T08:36:21.453Z,82.87
2018-09-09T08:37:30.378Z,82.68
2018-09-09T08:38:39.281Z,82.68
2018-09-09T08:39:47.930Z,83.07
2018-09-09T08:40:56.574Z,82.97
2018-09-09T08:42:05.226Z,82.73
2018-09-09T08:43:13.870Z,82.92
2018-09-09T08:44:22.523Z,82.34
2018-09-09T08:45:31.554Z,82.43
2018-09-09T08:46:40.433Z,83.11
2018-09-09T08:47:49.080Z,83.97
2018-09-09T08:48:57.729Z,84.17
2018-09-09T08:50:06.377Z,83.97
2018-09-09T08:51:15.024Z,84.07
2018-09-09T08:52:23.673Z,84.64
2018-09-09T08:53:32.326Z,83.78
2018-09-09T08:54:40.979Z,82.34
2018-09-09T08:55:49.624Z,82.34
2018-09-09T08:56:58.272Z,81.28
2018-09-09T08:58:06.918Z,81.19
2018-09-09T08:59:15.575Z,80.71
2018-09-09T09:00:24.214Z,80.42
2018-09-09T09:01:32.866Z,80.61
2018-09-09T09:02:41.511Z,80.99
2018-09-09T09:03:50.182Z,81.28
2018-09-09T09:04:58.814Z,81.57
2018-09-09T09:06:07.720Z,81.28
2018-09-09T09:07:16.375Z,81.13
2018-09-09T09:08:25.017Z,81.76
2018-09-09T09:09:33.936Z,81.71
2018-09-09T09:10:42.583Z,80.65
2018-09-09T09:11:51.230Z,79.88
2018-09-09T09:13:00.142Z,79.6
2018-09-09T09:14:08.794Z,79.6
2018-09-09T09:15:17.443Z,81.13
2018-09-09T09:16:26.092Z,81.99
2018-09-09T09:17:34.738Z,81.13
2018-09-09T09:18:43.756Z,80.65
2018-09-09T09:19:52.295Z,79.6
2018-09-09T09:21:00.968Z,78.92
2018-09-09T09:22:09.588Z,78.92
2018-09-09T09:23:18.240Z,78.44
2018-09-09T09:24:26.889Z,78.06
2018-09-09T09:25:35.540Z,78.44
2018-09-09T09:26:44.188Z,77.58
2018-09-09T09:27:52.831Z,77.42
2018-09-09T09:29:01.491Z,77.13
2018-09-09T09:30:10.664Z,77.33
2018-09-09T09:31:19.317Z,76.65
2018-09-09T09:32:27.960Z,75.59
2018-09-09T09:33:36.610Z,76.84
2018-09-09T09:34:45.518Z,77.33
2018-09-09T09:35:54.162Z,77.51
2018-09-09T09:37:02.815Z,77.42
2018-09-09T09:38:11.461Z,76.84
2018-09-09T09:39:20.146Z,76.94
2018-09-09T09:40:28.754Z,76.75
2018-09-09T09:41:37.407Z,76.56
2018-09-09T09:42:46.324Z,75.69
2018-09-09T09:43:55.241Z,76.75
2018-09-09T09:45:03.893Z,75.69
2018-09-09T09:46:12.534Z,76.07
2018-09-09T09:47:21.186Z,76.56
2018-09-09T09:48:30.099Z,76.26
2018-09-09T09:49:39.013Z,76.94
2018-09-09T09:50:47.665Z,76.75
2018-09-09T09:51:56.578Z,75.4
2018-09-09T09:53:05.537Z,76.17
2018-09-09T09:54:14.144Z,75.98
2018-09-09T09:55:23.328Z,76.36
2018-09-09T09:56:31.971Z,75.69
2018-09-09T09:57:40.884Z,75.4
2018-09-09T09:58:49.535Z,75.49
2018-09-09T09:59:58.185Z,76.65
2018-09-09T10:01:06.830Z,78.38
2018-09-09T10:02:15.481Z,76.46
2018-09-09T10:03:24.436Z,75.79
2018-09-09T10:04:33.039Z,75.31
2018-09-09T10:05:41.688Z,75.54
2018-09-09T10:06:50.334Z,75.34
2018-09-09T10:07:58.978Z,74.76
2018-09-09T10:09:07.719Z,73.99
2018-09-09T10:10:17.030Z,74.48
2018-09-09T10:11:25.677Z,73.99
2018-09-09T10:12:34.319Z,74.86
2018-09-09T10:13:42.973Z,75.73
2018-09-09T10:14:51.618Z,76.59
2018-09-09T10:16:00.268Z,74.86
2018-09-09T10:17:08.911Z,74.96
2018-09-09T10:18:17.561Z,75.24
2018-09-09T10:19:26.216Z,76.01
2018-09-09T10:20:35.132Z,73.9
2018-09-09T10:21:43.782Z,73.42
2018-09-09T10:22:52.425Z,74.38
2018-09-09T10:24:01.351Z,72.68
2018-09-09T10:25:10.008Z,72.11
2018-09-09T10:26:18.658Z,72.59
2018-09-09T10:27:27.302Z,72.3
2018-09-09T10:28:35.951Z,72.3
2018-09-09T10:29:44.599Z,72.72
2018-09-09T10:30:53.253Z,72.91
2018-09-09T10:32:01.906Z,72.53
2018-09-09T10:33:10.823Z,72.43
2018-09-09T10:34:19.464Z,72.72
2018-09-09T10:35:28.393Z,73.88
2018-09-09T10:36:37.302Z,72.05
2018-09-09T10:37:46.206Z,71.47
2018-09-09T10:38:54.850Z,72.53
2018-09-09T10:40:03.495Z,72.05
2018-09-09T10:41:12.155Z,70.89
2018-09-09T10:42:20.800Z,71.02
2018-09-09T10:43:29.715Z,70.35
2018-09-09T10:44:38.626Z,71.02
2018-09-09T10:45:47.815Z,71.12
2018-09-09T10:46:56.520Z,70.06
2018-09-09T10:48:05.114Z,69.96
2018-09-09T10:49:13.759Z,71.98
2018-09-09T10:50:22.413Z,70.15
2018-09-09T10:51:31.061Z,71.08
2018-09-09T10:52:39.711Z,72.18
2018-09-09T10:53:48.352Z,71.47
2018-09-09T10:54:57.007Z,71.47
2018-09-09T10:56:05.923Z,71.37
2018-09-09T10:57:14.582Z,71.47
2018-09-09T10:58:23.237Z,71.76
2018-09-09T10:59:31.879Z,71.28
2018-09-09T11:00:40.531Z,70.6
2018-09-09T11:01:49.441Z,70.02
2018-09-09T11:02:58.097Z,69.83
2018-09-09T11:04:06.738Z,69.96
2018-09-09T11:05:15.389Z,68.23
2018-09-09T11:06:24.033Z,66.91
2018-09-09T11:07:32.956Z,66.33
2018-09-09T11:08:41.597Z,65.3
2018-09-09T11:09:50.249Z,64.63
2018-09-09T11:10:58.897Z,64.34
2018-09-09T11:12:07.557Z,63.76
2018-09-09T11:13:16.203Z,64.15
2018-09-09T11:14:24.846Z,64.15
2018-09-09T11:15:33.494Z,64.24
2018-09-09T11:16:42.140Z,64.24
2018-09-09T11:17:50.798Z,64.18
2018-09-09T11:18:59.812Z,65.05
2018-09-09T11:20:08.452Z,64.28
2018-09-09T11:21:17.092Z,64.18
2018-09-09T11:22:25.753Z,63.6
2018-09-09T11:23:34.397Z,63.67
2018-09-09T11:24:43.057Z,64.34
2018-09-09T11:25:51.691Z,64.24
2018-09-09T11:27:00.347Z,65.5
2018-09-09T11:28:09.001Z,65.69
2018-09-09T11:29:17.650Z,65.88
2018-09-09T11:30:26.293Z,66.17
2018-09-09T11:31:35.209Z,65.4
2018-09-09T11:32:43.870Z,64.76
2018-09-09T11:33:52.513Z,63.7
2018-09-09T11:35:01.167Z,62.82
2018-09-09T11:36:10.200Z,63.7
2018-09-09T11:37:18.792Z,64.37
2018-09-09T11:38:27.441Z,64.08
2018-09-09T11:39:36.359Z,64.66
2018-09-09T11:40:45.067Z,64.08
2018-09-09T11:41:54.000Z,63.31
2018-09-09T11:43:02.650Z,63.21
2018-09-09T11:44:11.306Z,63.79
2018-09-09T11:45:19.952Z,63.28
2018-09-09T11:46:28.603Z,64.05
2018-09-09T11:47:37.254Z,64.05
2018-09-09T11:48:45.909Z,64.92
2018-09-09T11:49:54.821Z,64.92
2018-09-09T11:51:03.476Z,64.92
2018-09-09T11:52:12.396Z,64.43
2018-09-09T11:53:21.305Z,64.34
2018-09-09T11:54:30.226Z,64.15
2018-09-09T11:55:38.881Z,64.34
2018-09-09T11:56:47.530Z,65.11
2018-09-09T11:57:56.447Z,65.2
2018-09-09T11:59:05.101Z,63.98
2018-09-09T12:00:13.751Z,64.08
2018-09-09T12:01:22.399Z,63.79
2018-09-09T12:02:31.043Z,63.6
2018-09-09T12:03:39.698Z,63.4
2018-09-09T12:04:48.342Z,63.31
2018-09-09T12:05:56.991Z,63.67
2018-09-09T12:07:05.636Z,64.18
2018-09-09T12:08:14.290Z,64.08
2018-09-09T12:09:22.938Z,63.5
2018-09-09T12:10:31.590Z,63.6
2018-09-09T12:11:40.243Z,64.47
2018-09-09T12:12:48.889Z,65.24
2018-09-09T12:13:57.800Z,66.59
2018-09-09T12:15:06.455Z,67.46
2018-09-09T12:16:15.375Z,68.01
2018-09-09T12:17:24.017Z,67.43
2018-09-09T12:18:32.928Z,66.66
2018-09-09T12:19:41.584Z,67.14
2018-09-09T12:20:50.503Z,66.56
2018-09-09T12:21:59.151Z,67.71
2018-09-09T12:23:07.802Z,66.08
2018-09-09T12:24:16.454Z,65.3
2018-09-09T12:25:25.105Z,65.5
2018-09-09T12:26:33.764Z,64.92
2018-09-09T12:27:42.401Z,64.66
2018-09-09T12:28:51.047Z,64.47
2018-09-09T12:29:59.696Z,65.43
2018-09-09T12:31:08.621Z,65.24
2018-09-09T12:32:17.310Z,64.76
2018-09-09T12:33:25.924Z,63.79
2018-09-09T12:34:34.563Z,63.12
2018-09-09T12:35:43.220Z,63.73
2018-09-09T12:36:51.880Z,63.34
2018-09-09T12:38:00.785Z,62.18
2018-09-09T12:39:09.432Z,63.34
2018-09-09T12:40:18.092Z,62.76
2018-09-09T12:41:27.010Z,62.28
2018-09-09T12:42:35.661Z,61.51
2018-09-09T12:43:44.300Z,62.28
2018-09-09T12:44:53.220Z,62.66
2018-09-09T12:46:01.895Z,62.86
2018-09-09T12:47:11.208Z,64.21
2018-09-09T12:48:19.787Z,63.82
2018-09-09T12:49:28.432Z,62.66
2018-09-09T12:50:37.347Z,61.77
2018-09-09T12:51:45.994Z,61.41
2018-09-09T12:52:54.652Z,61.89
2018-09-09T12:54:03.292Z,61.02
2018-09-09T12:55:11.950Z,60.83
2018-09-09T12:56:20.601Z,60.44
2018-09-09T12:57:29.260Z,60.06
2018-09-09T12:58:38.166Z,60.73
2018-09-09T12:59:46.818Z,60.54
2018-09-09T13:00:55.464Z,60.73
2018-09-09T13:02:04.124Z,61.99
2018-09-09T13:03:12.771Z,61.8
2018-09-09T13:04:21.416Z,61.51
2018-09-09T13:05:30.329Z,62.47
2018-09-09T13:06:38.979Z,61.99
2018-09-09T13:07:47.634Z,61.28
2018-09-09T13:08:56.277Z,62.44
2018-09-09T13:10:04.939Z,63.98
2018-09-09T13:11:14.105Z,64.86
2018-09-09T13:12:22.760Z,66.11
2018-09-09T13:13:31.406Z,66.3
2018-09-09T13:14:40.061Z,65.43
2018-09-09T13:15:48.706Z,65.72
2018-09-09T13:16:57.367Z,64.86
2018-09-09T13:18:06.016Z,63.98
2018-09-09T13:19:14.671Z,63.21
2018-09-09T13:20:23.313Z,62.82
2018-09-09T13:21:31.964Z,63.4
2018-09-09T13:22:40.619Z,62.82
2018-09-09T13:23:49.274Z,62.57
2018-09-09T13:24:57.926Z,62.95
2018-09-09T13:26:06.570Z,65.37
2018-09-09T13:27:15.224Z,65.08
2018-09-09T13:28:23.870Z,63.98
2018-09-09T13:29:32.527Z,62.86
2018-09-09T13:30:41.175Z,62.92
2018-09-09T13:31:49.821Z,62.28
2018-09-09T13:32:58.475Z,60.93
2018-09-09T13:34:07.115Z,61.02
2018-09-09T13:35:15.775Z,61.6
2018-09-09T13:36:24.422Z,61.31
2018-09-09T13:37:33.073Z,60.86
2018-09-09T13:38:41.713Z,60.57
2018-09-09T13:39:50.365Z,60.38
2018-09-09T13:40:59.020Z,60.57
2018-09-09T13:42:07.672Z,60.57
2018-09-09T13:43:16.327Z,59.8
2018-09-09T13:44:25.230Z,60.38
2018-09-09T13:45:33.886Z,60.47
2018-09-09T13:46:42.801Z,60.47
2018-09-09T13:47:51.722Z,60.28
2018-09-09T13:49:00.724Z,60.38
2018-09-09T13:50:09.378Z,60.57
2018-09-09T13:51:18.025Z,59.6
2018-09-09T13:52:26.686Z,59.89
2018-09-09T13:53:35.589Z,59.8
2018-09-09T13:54:44.784Z,60.38
2018-09-09T13:55:53.427Z,59.7
2018-09-09T13:57:02.086Z,59.7
2018-09-09T13:58:10.757Z,59.8
2018-09-09T13:59:19.384Z,60.18
2018-09-09T14:00:28.038Z,60.47
2018-09-09T14:01:36.685Z,60.76
2018-09-09T14:02:45.345Z,60.86
2018-09-09T14:03:54.291Z,60.67
2018-09-09T14:05:03.278Z,60.96
2018-09-09T14:06:11.921Z,60.76
2018-09-09T14:07:20.580Z,60.18
2018-09-09T14:08:29.226Z,60.31
2018-09-09T14:09:37.899Z,59.92
2018-09-09T14:10:46.521Z,59.44
2018-09-09T14:11:55.181Z,59.28
2018-09-09T14:13:03.830Z,58.89
2018-09-09T14:14:12.743Z,59.28
2018-09-09T14:15:21.394Z,59.73
2018-09-09T14:16:30.315Z,60.89
2018-09-09T14:17:39.235Z,60.79
2018-09-09T14:18:48.170Z,60.5
2018-09-09T14:19:56.822Z,60.5
2018-09-09T14:21:05.463Z,60.38
2018-09-09T14:22:14.287Z,61.15
2018-09-09T14:23:22.768Z,60.96
2018-09-09T14:24:31.427Z,60.57
2018-09-09T14:25:40.068Z,61.15
2018-09-09T14:26:48.722Z,61.63
2018-09-09T14:27:58.019Z,62.57
2018-09-09T14:29:07.004Z,63.24
2018-09-09T14:30:15.617Z,62.95
2018-09-09T14:31:24.270Z,62.47
2018-09-09T14:32:32.923Z,62.47
2018-09-09T14:33:41.578Z,62.47
2018-09-09T14:34:50.225Z,61.44
2018-09-09T14:35:58.876Z,61.34
2018-09-09T14:37:07.528Z,61.05
2018-09-09T14:38:16.172Z,60.86
2018-09-09T14:39:24.827Z,61.15
2018-09-09T14:40:33.482Z,61.44
2018-09-09T14:41:42.132Z,61.44
2018-09-09T14:42:50.779Z,60.96
2018-09-09T14:43:59.438Z,61.54
2018-09-09T14:45:08.084Z,61.73
2018-09-09T14:46:16.732Z,61.63
2018-09-09T14:47:25.384Z,62.79